sensor_id;sensor_type;location;lat;lon;timestamp;P1;durP1;ratioP1;P2;durP2;ratioP2
4595;SDS011;2310;49.978;8.742;2023-07-02T00:01:04;4.80;;;3.30;;
4595;SDS011;2310;49.978;8.742;2023-07-02T00:05:05;5.97;;;3.50;;
4595;SDS011;2310;49.978;8.742;2023-07-02T00:09:07;5.87;;;4.30;;
4595;SDS011;2310;49.978;8.742;2023-07-02T00:13:11;5.07;;;4.00;;
4595;SDS011;2310;49.978;8.742;2023-07-02T00:17:12;4.50;;;3.10;;
4595;SDS011;2310;49.978;8.742;2023-07-02T00:21:13;7.00;;;3.93;;
4595;SDS011;2310;49.978;8.742;2023-07-02T00:25:15;5.27;;;3.57;;
4595;SDS011;2310;49.978;8.742;2023-07-02T00:29:16;6.87;;;3.57;;
4595;SDS011;2310;49.978;8.742;2023-07-02T00:33:18;8.33;;;3.60;;
4595;SDS011;2310;49.978;8.742;2023-07-02T00:37:19;5.90;;;3.60;;
4595;SDS011;2310;49.978;8.742;2023-07-02T00:41:20;7.50;;;3.60;;
4595;SDS011;2310;49.978;8.742;2023-07-02T00:45:22;5.27;;;3.10;;
4595;SDS011;2310;49.978;8.742;2023-07-02T00:49:25;4.37;;;2.73;;
4595;SDS011;2310;49.978;8.742;2023-07-02T00:53:27;6.17;;;3.07;;
4595;SDS011;2310;49.978;8.742;2023-07-02T00:57:28;7.47;;;4.03;;
4595;SDS011;2310;49.978;8.742;2023-07-02T01:01:30;4.77;;;2.93;;
4595;SDS011;2310;49.978;8.742;2023-07-02T01:05:33;5.60;;;3.40;;
4595;SDS011;2310;49.978;8.742;2023-07-02T01:09:38;6.97;;;3.00;;
4595;SDS011;2310;49.978;8.742;2023-07-02T01:13:39;8.53;;;3.40;;
4595;SDS011;2310;49.978;8.742;2023-07-02T01:17:41;5.27;;;2.93;;
4595;SDS011;2310;49.978;8.742;2023-07-02T01:21:43;5.63;;;3.70;;
4595;SDS011;2310;49.978;8.742;2023-07-02T01:25:44;7.10;;;3.60;;
4595;SDS011;2310;49.978;8.742;2023-07-02T01:29:46;6.17;;;3.57;;
4595;SDS011;2310;49.978;8.742;2023-07-02T01:33:49;5.50;;;2.90;;
4595;SDS011;2310;49.978;8.742;2023-07-02T01:37:51;6.27;;;3.83;;
4595;SDS011;2310;49.978;8.742;2023-07-02T01:41:53;5.20;;;3.17;;
4595;SDS011;2310;49.978;8.742;2023-07-02T01:45:56;5.03;;;2.77;;
4595;SDS011;2310;49.978;8.742;2023-07-02T01:49:58;4.83;;;2.90;;
4595;SDS011;2310;49.978;8.742;2023-07-02T01:53:59;5.73;;;2.93;;
4595;SDS011;2310;49.978;8.742;2023-07-02T01:58:01;6.30;;;3.13;;
4595;SDS011;2310;49.978;8.742;2023-07-02T02:02:03;5.87;;;3.23;;
4595;SDS011;2310;49.978;8.742;2023-07-02T02:06:04;5.93;;;3.23;;
4595;SDS011;2310;49.978;8.742;2023-07-02T02:10:06;6.17;;;2.90;;
4595;SDS011;2310;49.978;8.742;2023-07-02T02:14:08;7.80;;;3.13;;
4595;SDS011;2310;49.978;8.742;2023-07-02T02:18:09;4.90;;;2.53;;
4595;SDS011;2310;49.978;8.742;2023-07-02T02:22:11;6.70;;;2.97;;
4595;SDS011;2310;49.978;8.742;2023-07-02T02:26:12;4.90;;;2.90;;
4595;SDS011;2310;49.978;8.742;2023-07-02T02:30:14;5.47;;;3.07;;
4595;SDS011;2310;49.978;8.742;2023-07-02T02:34:15;5.30;;;3.30;;
4595;SDS011;2310;49.978;8.742;2023-07-02T02:38:16;6.33;;;3.70;;
4595;SDS011;2310;49.978;8.742;2023-07-02T02:42:18;7.53;;;3.67;;
4595;SDS011;2310;49.978;8.742;2023-07-02T02:46:23;10.77;;;4.73;;
4595;SDS011;2310;49.978;8.742;2023-07-02T02:50:26;5.80;;;3.93;;
4595;SDS011;2310;49.978;8.742;2023-07-02T02:54:28;9.37;;;4.00;;
4595;SDS011;2310;49.978;8.742;2023-07-02T02:58:29;6.43;;;3.77;;
4595;SDS011;2310;49.978;8.742;2023-07-02T03:02:32;7.40;;;4.13;;
4595;SDS011;2310;49.978;8.742;2023-07-02T03:06:33;7.03;;;4.37;;
4595;SDS011;2310;49.978;8.742;2023-07-02T03:10:35;7.30;;;4.77;;
4595;SDS011;2310;49.978;8.742;2023-07-02T03:14:36;6.90;;;4.77;;
4595;SDS011;2310;49.978;8.742;2023-07-02T03:18:38;6.70;;;4.20;;
4595;SDS011;2310;49.978;8.742;2023-07-02T03:22:39;10.20;;;5.83;;
4595;SDS011;2310;49.978;8.742;2023-07-02T03:26:41;15.83;;;4.90;;
4595;SDS011;2310;49.978;8.742;2023-07-02T03:30:44;8.80;;;5.77;;
4595;SDS011;2310;49.978;8.742;2023-07-02T03:34:45;8.13;;;4.93;;
4595;SDS011;2310;49.978;8.742;2023-07-02T03:38:47;8.43;;;5.20;;
4595;SDS011;2310;49.978;8.742;2023-07-02T03:42:48;8.87;;;5.30;;
4595;SDS011;2310;49.978;8.742;2023-07-02T03:46:49;9.20;;;4.97;;
4595;SDS011;2310;49.978;8.742;2023-07-02T03:50:51;11.83;;;5.40;;
4595;SDS011;2310;49.978;8.742;2023-07-02T03:54:52;9.47;;;5.80;;
4595;SDS011;2310;49.978;8.742;2023-07-02T03:58:53;8.87;;;5.93;;
4595;SDS011;2310;49.978;8.742;2023-07-02T04:02:55;9.87;;;6.00;;
4595;SDS011;2310;49.978;8.742;2023-07-02T04:06:56;8.70;;;6.10;;
4595;SDS011;2310;49.978;8.742;2023-07-02T04:10:58;11.90;;;6.43;;
4595;SDS011;2310;49.978;8.742;2023-07-02T04:14:59;9.67;;;5.90;;
4595;SDS011;2310;49.978;8.742;2023-07-02T04:19:01;10.37;;;5.37;;
4595;SDS011;2310;49.978;8.742;2023-07-02T04:23:02;7.47;;;4.83;;
4595;SDS011;2310;49.978;8.742;2023-07-02T04:27:03;10.47;;;6.23;;
4595;SDS011;2310;49.978;8.742;2023-07-02T04:31:07;9.00;;;6.23;;
4595;SDS011;2310;49.978;8.742;2023-07-02T04:35:08;11.20;;;6.33;;
4595;SDS011;2310;49.978;8.742;2023-07-02T04:39:10;9.40;;;6.63;;
4595;SDS011;2310;49.978;8.742;2023-07-02T04:43:11;8.73;;;6.27;;
4595;SDS011;2310;49.978;8.742;2023-07-02T04:51:08;10.67;;;6.70;;
4595;SDS011;2310;49.978;8.742;2023-07-02T04:55:09;11.60;;;6.70;;
4595;SDS011;2310;49.978;8.742;2023-07-02T04:59:10;12.07;;;7.00;;
4595;SDS011;2310;49.978;8.742;2023-07-02T05:03:12;8.97;;;6.53;;
4595;SDS011;2310;49.978;8.742;2023-07-02T05:07:13;9.80;;;6.70;;
4595;SDS011;2310;49.978;8.742;2023-07-02T05:11:14;10.48;;;6.80;;
4595;SDS011;2310;49.978;8.742;2023-07-02T05:15:16;10.30;;;7.20;;
4595;SDS011;2310;49.978;8.742;2023-07-02T05:19:17;8.53;;;6.60;;
4595;SDS011;2310;49.978;8.742;2023-07-02T05:23:19;10.57;;;7.10;;
4595;SDS011;2310;49.978;8.742;2023-07-02T05:27:20;10.23;;;6.47;;
4595;SDS011;2310;49.978;8.742;2023-07-02T05:31:21;13.57;;;8.40;;
4595;SDS011;2310;49.978;8.742;2023-07-02T05:35:23;11.20;;;7.87;;
4595;SDS011;2310;49.978;8.742;2023-07-02T05:39:24;11.13;;;7.90;;
4595;SDS011;2310;49.978;8.742;2023-07-02T05:43:26;11.00;;;7.53;;
4595;SDS011;2310;49.978;8.742;2023-07-02T05:47:27;12.93;;;8.00;;
4595;SDS011;2310;49.978;8.742;2023-07-02T05:51:30;12.43;;;9.23;;
4595;SDS011;2310;49.978;8.742;2023-07-02T05:55:32;9.63;;;7.77;;
4595;SDS011;2310;49.978;8.742;2023-07-02T05:59:33;11.40;;;7.70;;
4595;SDS011;2310;49.978;8.742;2023-07-02T06:03:35;10.00;;;7.40;;
4595;SDS011;2310;49.978;8.742;2023-07-02T06:07:36;12.03;;;9.10;;
4595;SDS011;2310;49.978;8.742;2023-07-02T06:11:39;14.13;;;9.70;;
4595;SDS011;2310;49.978;8.742;2023-07-02T06:15:41;12.93;;;9.30;;
4595;SDS011;2310;49.978;8.742;2023-07-02T06:19:44;11.27;;;8.73;;
4595;SDS011;2310;49.978;8.742;2023-07-02T06:23:45;13.70;;;10.37;;
4595;SDS011;2310;49.978;8.742;2023-07-02T06:27:47;12.60;;;9.40;;
4595;SDS011;2310;49.978;8.742;2023-07-02T06:31:48;13.93;;;10.30;;
4595;SDS011;2310;49.978;8.742;2023-07-02T06:35:50;15.00;;;10.40;;
4595;SDS011;2310;49.978;8.742;2023-07-02T06:39:51;13.65;;;11.55;;
4595;SDS011;2310;49.978;8.742;2023-07-02T06:43:53;15.33;;;11.30;;
4595;SDS011;2310;49.978;8.742;2023-07-02T06:47:54;17.53;;;12.30;;
4595;SDS011;2310;49.978;8.742;2023-07-02T06:51:55;14.70;;;11.00;;
4595;SDS011;2310;49.978;8.742;2023-07-02T06:55:57;14.05;;;10.30;;
4595;SDS011;2310;49.978;8.742;2023-07-02T06:59:58;15.47;;;11.27;;
4595;SDS011;2310;49.978;8.742;2023-07-02T07:04:00;13.53;;;11.43;;
4595;SDS011;2310;49.978;8.742;2023-07-02T07:08:03;13.90;;;10.57;;
4595;SDS011;2310;49.978;8.742;2023-07-02T07:12:08;13.17;;;10.33;;
4595;SDS011;2310;49.978;8.742;2023-07-02T07:16:09;16.83;;;11.80;;
4595;SDS011;2310;49.978;8.742;2023-07-02T07:20:11;17.90;;;11.50;;
4595;SDS011;2310;49.978;8.742;2023-07-02T07:24:12;18.50;;;12.80;;
4595;SDS011;2310;49.978;8.742;2023-07-02T07:28:14;18.23;;;12.27;;
4595;SDS011;2310;49.978;8.742;2023-07-02T07:32:16;15.13;;;11.73;;
4595;SDS011;2310;49.978;8.742;2023-07-02T07:36:18;19.43;;;13.00;;
4595;SDS011;2310;49.978;8.742;2023-07-02T07:40:20;14.40;;;12.60;;
4595;SDS011;2310;49.978;8.742;2023-07-02T07:44:21;16.50;;;12.53;;
4595;SDS011;2310;49.978;8.742;2023-07-02T07:48:22;18.60;;;13.53;;
4595;SDS011;2310;49.978;8.742;2023-07-02T07:52:24;20.00;;;14.00;;
4595;SDS011;2310;49.978;8.742;2023-07-02T07:56:25;19.00;;;12.97;;
4595;SDS011;2310;49.978;8.742;2023-07-02T08:00:26;16.67;;;12.87;;
4595;SDS011;2310;49.978;8.742;2023-07-02T08:04:28;20.07;;;12.93;;
4595;SDS011;2310;49.978;8.742;2023-07-02T08:08:29;16.23;;;13.75;;
4595;SDS011;2310;49.978;8.742;2023-07-02T08:12:30;18.70;;;11.80;;
4595;SDS011;2310;49.978;8.742;2023-07-02T08:16:32;18.03;;;14.20;;
4595;SDS011;2310;49.978;8.742;2023-07-02T08:20:33;17.25;;;13.05;;
4595;SDS011;2310;49.978;8.742;2023-07-02T08:24:34;16.27;;;13.30;;
4595;SDS011;2310;49.978;8.742;2023-07-02T08:28:36;18.32;;;13.50;;
4595;SDS011;2310;49.978;8.742;2023-07-02T08:32:39;16.50;;;13.93;;
4595;SDS011;2310;49.978;8.742;2023-07-02T08:36:40;18.97;;;12.67;;
4595;SDS011;2310;49.978;8.742;2023-07-02T08:40:43;15.97;;;11.57;;
4595;SDS011;2310;49.978;8.742;2023-07-02T08:44:48;19.30;;;13.50;;
4595;SDS011;2310;49.978;8.742;2023-07-02T08:48:51;13.67;;;11.80;;
4595;SDS011;2310;49.978;8.742;2023-07-02T08:52:53;15.93;;;13.13;;
4595;SDS011;2310;49.978;8.742;2023-07-02T08:56:55;15.77;;;12.27;;
4595;SDS011;2310;49.978;8.742;2023-07-02T09:01:06;13.83;;;11.30;;
4595;SDS011;2310;49.978;8.742;2023-07-02T09:05:09;15.17;;;12.50;;
4595;SDS011;2310;49.978;8.742;2023-07-02T09:09:10;15.77;;;12.63;;
4595;SDS011;2310;49.978;8.742;2023-07-02T09:13:11;15.53;;;12.83;;
4595;SDS011;2310;49.978;8.742;2023-07-02T09:17:13;14.80;;;12.33;;
4595;SDS011;2310;49.978;8.742;2023-07-02T09:21:14;14.07;;;11.70;;
4595;SDS011;2310;49.978;8.742;2023-07-02T09:25:15;14.30;;;12.77;;
4595;SDS011;2310;49.978;8.742;2023-07-02T09:29:24;17.07;;;13.23;;
4595;SDS011;2310;49.978;8.742;2023-07-02T09:33:32;12.77;;;10.77;;
4595;SDS011;2310;49.978;8.742;2023-07-02T09:37:34;12.83;;;10.50;;
4595;SDS011;2310;49.978;8.742;2023-07-02T09:41:35;13.70;;;11.67;;
4595;SDS011;2310;49.978;8.742;2023-07-02T09:45:37;12.40;;;10.25;;
4595;SDS011;2310;49.978;8.742;2023-07-02T09:49:41;15.23;;;12.13;;
4595;SDS011;2310;49.978;8.742;2023-07-02T09:53:46;14.00;;;11.70;;
4595;SDS011;2310;49.978;8.742;2023-07-02T09:57:47;14.53;;;12.00;;
4595;SDS011;2310;49.978;8.742;2023-07-02T10:01:49;16.42;;;13.08;;
4595;SDS011;2310;49.978;8.742;2023-07-02T10:05:51;13.63;;;10.93;;
4595;SDS011;2310;49.978;8.742;2023-07-02T10:09:56;15.53;;;11.97;;
4595;SDS011;2310;49.978;8.742;2023-07-02T10:13:58;14.17;;;11.90;;
4595;SDS011;2310;49.978;8.742;2023-07-02T10:18:01;12.98;;;11.10;;
4595;SDS011;2310;49.978;8.742;2023-07-02T10:22:04;12.53;;;11.23;;
4595;SDS011;2310;49.978;8.742;2023-07-02T10:26:14;14.30;;;12.37;;
4595;SDS011;2310;49.978;8.742;2023-07-02T10:30:18;14.78;;;12.25;;
4595;SDS011;2310;49.978;8.742;2023-07-02T10:34:32;14.85;;;12.30;;
4595;SDS011;2310;49.978;8.742;2023-07-02T10:38:34;12.97;;;11.07;;
4595;SDS011;2310;49.978;8.742;2023-07-02T10:42:49;14.60;;;12.20;;
4595;SDS011;2310;49.978;8.742;2023-07-02T10:46:51;14.10;;;12.57;;
4595;SDS011;2310;49.978;8.742;2023-07-02T10:50:53;14.60;;;13.00;;
4595;SDS011;2310;49.978;8.742;2023-07-02T10:54:54;14.30;;;12.80;;
4595;SDS011;2310;49.978;8.742;2023-07-02T10:58:55;16.60;;;13.73;;
4595;SDS011;2310;49.978;8.742;2023-07-02T11:02:57;15.60;;;13.23;;
4595;SDS011;2310;49.978;8.742;2023-07-02T11:07:00;17.60;;;13.17;;
4595;SDS011;2310;49.978;8.742;2023-07-02T11:11:08;16.73;;;14.00;;
4595;SDS011;2310;49.978;8.742;2023-07-02T11:19:14;15.20;;;12.57;;
4595;SDS011;2310;49.978;8.742;2023-07-02T11:23:25;16.05;;;13.30;;
4595;SDS011;2310;49.978;8.742;2023-07-02T11:27:25;19.10;;;14.47;;
4595;SDS011;2310;49.978;8.742;2023-07-02T11:31:27;18.03;;;13.23;;
4595;SDS011;2310;49.978;8.742;2023-07-02T11:35:34;18.92;;;14.38;;
4595;SDS011;2310;49.978;8.742;2023-07-02T11:39:36;14.23;;;12.70;;
4595;SDS011;2310;49.978;8.742;2023-07-02T11:43:37;15.53;;;13.90;;
4595;SDS011;2310;49.978;8.742;2023-07-02T11:47:39;16.77;;;14.37;;
4595;SDS011;2310;49.978;8.742;2023-07-02T11:51:41;19.30;;;15.63;;
4595;SDS011;2310;49.978;8.742;2023-07-02T11:55:46;14.57;;;13.07;;
4595;SDS011;2310;49.978;8.742;2023-07-02T11:59:48;16.47;;;14.40;;
4595;SDS011;2310;49.978;8.742;2023-07-02T12:03:50;18.37;;;13.87;;
4595;SDS011;2310;49.978;8.742;2023-07-02T12:07:51;19.10;;;15.32;;
4595;SDS011;2310;49.978;8.742;2023-07-02T12:11:53;17.83;;;14.53;;
4595;SDS011;2310;49.978;8.742;2023-07-02T12:15:55;17.60;;;15.67;;
4595;SDS011;2310;49.978;8.742;2023-07-02T12:19:56;17.63;;;14.43;;
4595;SDS011;2310;49.978;8.742;2023-07-02T12:23:58;16.60;;;14.40;;
4595;SDS011;2310;49.978;8.742;2023-07-02T12:28:01;18.70;;;15.63;;
4595;SDS011;2310;49.978;8.742;2023-07-02T12:32:03;18.02;;;16.07;;
4595;SDS011;2310;49.978;8.742;2023-07-02T12:36:05;20.53;;;15.10;;
4595;SDS011;2310;49.978;8.742;2023-07-02T12:40:08;17.17;;;14.33;;
4595;SDS011;2310;49.978;8.742;2023-07-02T12:44:10;19.40;;;16.23;;
4595;SDS011;2310;49.978;8.742;2023-07-02T12:48:11;19.90;;;15.67;;
4595;SDS011;2310;49.978;8.742;2023-07-02T12:52:13;19.15;;;14.90;;
4595;SDS011;2310;49.978;8.742;2023-07-02T12:56:14;18.97;;;16.93;;
4595;SDS011;2310;49.978;8.742;2023-07-02T13:00:16;19.07;;;15.97;;
4595;SDS011;2310;49.978;8.742;2023-07-02T13:04:17;18.57;;;15.50;;
4595;SDS011;2310;49.978;8.742;2023-07-02T13:08:19;19.17;;;15.93;;
4595;SDS011;2310;49.978;8.742;2023-07-02T13:12:20;17.77;;;15.88;;
4595;SDS011;2310;49.978;8.742;2023-07-02T13:16:22;17.40;;;14.93;;
4595;SDS011;2310;49.978;8.742;2023-07-02T13:20:25;18.50;;;15.67;;
4595;SDS011;2310;49.978;8.742;2023-07-02T13:24:28;17.70;;;15.80;;
4595;SDS011;2310;49.978;8.742;2023-07-02T13:28:31;19.02;;;14.95;;
4595;SDS011;2310;49.978;8.742;2023-07-02T13:32:33;16.77;;;14.40;;
4595;SDS011;2310;49.978;8.742;2023-07-02T13:36:34;15.77;;;14.10;;
4595;SDS011;2310;49.978;8.742;2023-07-02T13:40:35;17.67;;;14.27;;
4595;SDS011;2310;49.978;8.742;2023-07-02T13:44:37;15.80;;;14.17;;
4595;SDS011;2310;49.978;8.742;2023-07-02T13:48:38;15.87;;;13.67;;
4595;SDS011;2310;49.978;8.742;2023-07-02T13:52:39;15.90;;;14.20;;
4595;SDS011;2310;49.978;8.742;2023-07-02T13:56:41;14.33;;;12.75;;
4595;SDS011;2310;49.978;8.742;2023-07-02T14:00:42;16.17;;;14.43;;
4595;SDS011;2310;49.978;8.742;2023-07-02T14:04:44;20.70;;;14.13;;
4595;SDS011;2310;49.978;8.742;2023-07-02T14:08:45;16.63;;;14.67;;
4595;SDS011;2310;49.978;8.742;2023-07-02T14:12:48;16.00;;;13.53;;
4595;SDS011;2310;49.978;8.742;2023-07-02T14:16:49;15.83;;;14.17;;
4595;SDS011;2310;49.978;8.742;2023-07-02T14:20:51;18.70;;;14.43;;
4595;SDS011;2310;49.978;8.742;2023-07-02T14:24:52;16.50;;;14.13;;
4595;SDS011;2310;49.978;8.742;2023-07-02T14:28:53;20.97;;;13.60;;
4595;SDS011;2310;49.978;8.742;2023-07-02T14:32:55;19.73;;;15.30;;
4595;SDS011;2310;49.978;8.742;2023-07-02T14:36:57;17.23;;;14.67;;
4595;SDS011;2310;49.978;8.742;2023-07-02T14:40:59;16.55;;;14.43;;
4595;SDS011;2310;49.978;8.742;2023-07-02T14:45:01;17.63;;;13.77;;
4595;SDS011;2310;49.978;8.742;2023-07-02T14:49:03;15.27;;;13.63;;
4595;SDS011;2310;49.978;8.742;2023-07-02T14:53:04;15.83;;;14.17;;
4595;SDS011;2310;49.978;8.742;2023-07-02T14:57:06;19.03;;;16.07;;
4595;SDS011;2310;49.978;8.742;2023-07-02T15:01:07;16.60;;;14.80;;
4595;SDS011;2310;49.978;8.742;2023-07-02T15:05:09;16.40;;;14.60;;
4595;SDS011;2310;49.978;8.742;2023-07-02T15:09:11;16.93;;;14.10;;
4595;SDS011;2310;49.978;8.742;2023-07-02T15:13:12;15.67;;;14.07;;
4595;SDS011;2310;49.978;8.742;2023-07-02T15:17:14;17.13;;;15.27;;
4595;SDS011;2310;49.978;8.742;2023-07-02T15:21:15;16.73;;;14.43;;
4595;SDS011;2310;49.978;8.742;2023-07-02T15:25:18;17.77;;;13.93;;
4595;SDS011;2310;49.978;8.742;2023-07-02T15:29:20;20.23;;;13.20;;
4595;SDS011;2310;49.978;8.742;2023-07-02T15:33:22;17.47;;;14.23;;
4595;SDS011;2310;49.978;8.742;2023-07-02T15:37:24;18.17;;;15.80;;
4595;SDS011;2310;49.978;8.742;2023-07-02T15:41:26;15.93;;;14.10;;
4595;SDS011;2310;49.978;8.742;2023-07-02T15:45:27;19.50;;;15.53;;
4595;SDS011;2310;49.978;8.742;2023-07-02T15:49:28;19.00;;;15.50;;
4595;SDS011;2310;49.978;8.742;2023-07-02T15:53:31;17.93;;;15.27;;
4595;SDS011;2310;49.978;8.742;2023-07-02T15:57:33;18.37;;;15.30;;
4595;SDS011;2310;49.978;8.742;2023-07-02T16:01:35;23.73;;;20.63;;
4595;SDS011;2310;49.978;8.742;2023-07-02T16:05:38;18.50;;;16.30;;
4595;SDS011;2310;49.978;8.742;2023-07-02T16:09:41;15.93;;;13.87;;
4595;SDS011;2310;49.978;8.742;2023-07-02T16:13:42;18.23;;;14.77;;
4595;SDS011;2310;49.978;8.742;2023-07-02T16:17:46;17.93;;;14.90;;
4595;SDS011;2310;49.978;8.742;2023-07-02T16:21:48;16.37;;;14.20;;
4595;SDS011;2310;49.978;8.742;2023-07-02T16:25:53;18.15;;;15.28;;
4595;SDS011;2310;49.978;8.742;2023-07-02T16:29:57;17.70;;;15.10;;
4595;SDS011;2310;49.978;8.742;2023-07-02T16:33:58;19.85;;;15.23;;
4595;SDS011;2310;49.978;8.742;2023-07-02T16:37:59;18.73;;;16.40;;
4595;SDS011;2310;49.978;8.742;2023-07-02T16:42:01;17.40;;;14.87;;
4595;SDS011;2310;49.978;8.742;2023-07-02T16:46:02;17.05;;;14.47;;
4595;SDS011;2310;49.978;8.742;2023-07-02T16:50:05;15.93;;;14.10;;
4595;SDS011;2310;49.978;8.742;2023-07-02T16:54:08;17.43;;;14.80;;
4595;SDS011;2310;49.978;8.742;2023-07-02T16:58:12;18.00;;;16.13;;
4595;SDS011;2310;49.978;8.742;2023-07-02T17:02:13;20.77;;;15.13;;
4595;SDS011;2310;49.978;8.742;2023-07-02T17:06:15;18.43;;;14.63;;
4595;SDS011;2310;49.978;8.742;2023-07-02T17:10:16;18.07;;;15.07;;
4595;SDS011;2310;49.978;8.742;2023-07-02T17:14:22;18.60;;;15.32;;
4595;SDS011;2310;49.978;8.742;2023-07-02T17:18:24;19.95;;;15.40;;
4595;SDS011;2310;49.978;8.742;2023-07-02T17:22:27;24.03;;;21.77;;
4595;SDS011;2310;49.978;8.742;2023-07-02T17:26:30;18.47;;;14.83;;
4595;SDS011;2310;49.978;8.742;2023-07-02T17:30:32;19.13;;;14.90;;
4595;SDS011;2310;49.978;8.742;2023-07-02T17:34:34;19.57;;;15.70;;
4595;SDS011;2310;49.978;8.742;2023-07-02T17:38:36;17.17;;;14.40;;
4595;SDS011;2310;49.978;8.742;2023-07-02T17:42:37;19.70;;;14.47;;
4595;SDS011;2310;49.978;8.742;2023-07-02T17:46:40;15.77;;;14.17;;
4595;SDS011;2310;49.978;8.742;2023-07-02T17:50:42;15.33;;;13.30;;
4595;SDS011;2310;49.978;8.742;2023-07-02T17:54:48;19.43;;;13.70;;
4595;SDS011;2310;49.978;8.742;2023-07-02T17:58:51;16.00;;;14.30;;
4595;SDS011;2310;49.978;8.742;2023-07-02T18:02:55;23.37;;;19.80;;
4595;SDS011;2310;49.978;8.742;2023-07-02T18:07:04;17.60;;;14.50;;
4595;SDS011;2310;49.978;8.742;2023-07-02T18:11:08;20.70;;;15.37;;
4595;SDS011;2310;49.978;8.742;2023-07-02T18:15:10;18.97;;;15.70;;
4595;SDS011;2310;49.978;8.742;2023-07-02T18:19:12;17.03;;;14.20;;
4595;SDS011;2310;49.978;8.742;2023-07-02T18:23:14;18.77;;;15.27;;
4595;SDS011;2310;49.978;8.742;2023-07-02T18:27:15;18.13;;;13.70;;
4595;SDS011;2310;49.978;8.742;2023-07-02T18:31:17;16.53;;;13.80;;
4595;SDS011;2310;49.978;8.742;2023-07-02T18:35:18;16.43;;;13.73;;
4595;SDS011;2310;49.978;8.742;2023-07-02T18:39:20;19.47;;;14.57;;
4595;SDS011;2310;49.978;8.742;2023-07-02T18:43:24;15.57;;;12.50;;
4595;SDS011;2310;49.978;8.742;2023-07-02T18:47:25;17.90;;;14.67;;
4595;SDS011;2310;49.978;8.742;2023-07-02T18:51:26;18.90;;;13.17;;
4595;SDS011;2310;49.978;8.742;2023-07-02T18:55:28;20.30;;;15.23;;
4595;SDS011;2310;49.978;8.742;2023-07-02T18:59:29;20.53;;;14.27;;
4595;SDS011;2310;49.978;8.742;2023-07-02T19:03:31;18.43;;;14.73;;
4595;SDS011;2310;49.978;8.742;2023-07-02T19:07:33;19.13;;;13.23;;
4595;SDS011;2310;49.978;8.742;2023-07-02T19:11:34;19.33;;;13.23;;
4595;SDS011;2310;49.978;8.742;2023-07-02T19:15:36;17.50;;;13.88;;
4595;SDS011;2310;49.978;8.742;2023-07-02T19:19:38;17.80;;;14.20;;
4595;SDS011;2310;49.978;8.742;2023-07-02T19:23:41;15.30;;;13.10;;
4595;SDS011;2310;49.978;8.742;2023-07-02T19:27:43;17.53;;;14.93;;
4595;SDS011;2310;49.978;8.742;2023-07-02T19:31:44;17.37;;;14.47;;
4595;SDS011;2310;49.978;8.742;2023-07-02T19:35:46;18.67;;;14.90;;
4595;SDS011;2310;49.978;8.742;2023-07-02T19:39:48;17.93;;;12.67;;
4595;SDS011;2310;49.978;8.742;2023-07-02T19:43:50;18.63;;;13.20;;
4595;SDS011;2310;49.978;8.742;2023-07-02T19:47:52;19.10;;;14.97;;
4595;SDS011;2310;49.978;8.742;2023-07-02T19:51:53;20.50;;;15.60;;
4595;SDS011;2310;49.978;8.742;2023-07-02T19:55:55;18.10;;;13.63;;
4595;SDS011;2310;49.978;8.742;2023-07-02T19:59:56;18.07;;;14.47;;
4595;SDS011;2310;49.978;8.742;2023-07-02T20:03:58;17.47;;;13.03;;
4595;SDS011;2310;49.978;8.742;2023-07-02T20:08:00;19.57;;;14.87;;
4595;SDS011;2310;49.978;8.742;2023-07-02T20:12:01;18.37;;;13.77;;
4595;SDS011;2310;49.978;8.742;2023-07-02T20:16:03;21.77;;;13.70;;
4595;SDS011;2310;49.978;8.742;2023-07-02T20:20:06;18.33;;;13.40;;
4595;SDS011;2310;49.978;8.742;2023-07-02T20:24:09;18.90;;;13.72;;
4595;SDS011;2310;49.978;8.742;2023-07-02T20:28:11;16.33;;;13.73;;
4595;SDS011;2310;49.978;8.742;2023-07-02T20:32:12;20.30;;;15.70;;
4595;SDS011;2310;49.978;8.742;2023-07-02T20:36:13;18.93;;;13.80;;
4595;SDS011;2310;49.978;8.742;2023-07-02T20:40:15;19.27;;;13.70;;
4595;SDS011;2310;49.978;8.742;2023-07-02T20:44:16;17.32;;;13.60;;
4595;SDS011;2310;49.978;8.742;2023-07-02T20:48:20;24.70;;;16.27;;
4595;SDS011;2310;49.978;8.742;2023-07-02T20:52:21;16.20;;;13.23;;
4595;SDS011;2310;49.978;8.742;2023-07-02T20:56:23;19.43;;;14.27;;
4595;SDS011;2310;49.978;8.742;2023-07-02T21:00:24;17.90;;;15.50;;
4595;SDS011;2310;49.978;8.742;2023-07-02T21:04:25;18.43;;;12.43;;
4595;SDS011;2310;49.978;8.742;2023-07-02T21:08:27;20.33;;;14.63;;
4595;SDS011;2310;49.978;8.742;2023-07-02T21:12:28;18.82;;;13.53;;
4595;SDS011;2310;49.978;8.742;2023-07-02T21:16:30;18.43;;;13.73;;
4595;SDS011;2310;49.978;8.742;2023-07-02T21:20:31;21.27;;;13.50;;
4595;SDS011;2310;49.978;8.742;2023-07-02T21:24:33;16.33;;;13.73;;
4595;SDS011;2310;49.978;8.742;2023-07-02T21:28:35;20.50;;;13.87;;
4595;SDS011;2310;49.978;8.742;2023-07-02T21:32:36;16.73;;;13.50;;
4595;SDS011;2310;49.978;8.742;2023-07-02T21:36:38;19.27;;;14.93;;
4595;SDS011;2310;49.978;8.742;2023-07-02T21:40:39;18.27;;;12.90;;
4595;SDS011;2310;49.978;8.742;2023-07-02T21:44:40;21.50;;;14.90;;
4595;SDS011;2310;49.978;8.742;2023-07-02T21:48:42;17.40;;;13.20;;
4595;SDS011;2310;49.978;8.742;2023-07-02T21:52:43;17.40;;;12.30;;
4595;SDS011;2310;49.978;8.742;2023-07-02T21:56:44;19.43;;;13.30;;
4595;SDS011;2310;49.978;8.742;2023-07-02T22:00:46;20.20;;;13.60;;
4595;SDS011;2310;49.978;8.742;2023-07-02T22:04:48;18.53;;;13.43;;
4595;SDS011;2310;49.978;8.742;2023-07-02T22:08:49;19.13;;;15.60;;
4595;SDS011;2310;49.978;8.742;2023-07-02T22:12:51;17.53;;;12.83;;
4595;SDS011;2310;49.978;8.742;2023-07-02T22:16:52;19.17;;;13.90;;
4595;SDS011;2310;49.978;8.742;2023-07-02T22:20:55;20.03;;;12.57;;
4595;SDS011;2310;49.978;8.742;2023-07-02T22:24:57;18.70;;;13.28;;
4595;SDS011;2310;49.978;8.742;2023-07-02T22:28:59;19.47;;;12.60;;
4595;SDS011;2310;49.978;8.742;2023-07-02T22:33:01;16.80;;;11.70;;
4595;SDS011;2310;49.978;8.742;2023-07-02T22:37:02;16.93;;;12.17;;
4595;SDS011;2310;49.978;8.742;2023-07-02T22:41:05;16.50;;;11.00;;
4595;SDS011;2310;49.978;8.742;2023-07-02T22:45:07;17.30;;;11.40;;
4595;SDS011;2310;49.978;8.742;2023-07-02T22:49:10;16.60;;;12.03;;
4595;SDS011;2310;49.978;8.742;2023-07-02T22:53:11;22.73;;;11.63;;
4595;SDS011;2310;49.978;8.742;2023-07-02T22:57:13;19.70;;;12.60;;
4595;SDS011;2310;49.978;8.742;2023-07-02T23:01:14;16.47;;;11.77;;
4595;SDS011;2310;49.978;8.742;2023-07-02T23:05:17;18.20;;;12.17;;
4595;SDS011;2310;49.978;8.742;2023-07-02T23:09:20;18.47;;;12.30;;
4595;SDS011;2310;49.978;8.742;2023-07-02T23:13:21;17.70;;;11.37;;
4595;SDS011;2310;49.978;8.742;2023-07-02T23:17:23;20.67;;;13.30;;
4595;SDS011;2310;49.978;8.742;2023-07-02T23:21:25;17.13;;;12.17;;
4595;SDS011;2310;49.978;8.742;2023-07-02T23:25:26;16.80;;;11.37;;
4595;SDS011;2310;49.978;8.742;2023-07-02T23:29:29;21.07;;;13.33;;
4595;SDS011;2310;49.978;8.742;2023-07-02T23:33:31;17.80;;;11.70;;
4595;SDS011;2310;49.978;8.742;2023-07-02T23:37:33;14.80;;;11.30;;
4595;SDS011;2310;49.978;8.742;2023-07-02T23:41:38;20.97;;;13.23;;
4595;SDS011;2310;49.978;8.742;2023-07-02T23:45:39;19.77;;;11.57;;
4595;SDS011;2310;49.978;8.742;2023-07-02T23:49:41;17.07;;;13.10;;
4595;SDS011;2310;49.978;8.742;2023-07-02T23:53:42;17.90;;;12.23;;
4595;SDS011;2310;49.978;8.742;2023-07-02T23:57:44;21.33;;;12.63;;
